Terminal Aerodrome Forecast
Issued by NWS Twin Cities, MN

Home | Current Version | Previous Version | Text Only | Print | Product List | Glossary On
Versions: 1 2 3 4 5 6 7 8 9 10 11 12 13 14 15 16 17 18 19 20 21 22 23
000
FTUS43 KMPX 302323
TAFEAU
TAF
KEAU 302323Z 3100/3124 19005KT P6SM SKC
     FM310500 19004KT 5SM BR OVC005
     FM311600 19010KT P6SM BKN010
     FM311800 19014G20KT P6SM SKC=

USA.gov is the U.S. government's official web portal to all federal, state and local government web resources and services.